sensor_id;sensor_type;location;lat;lon;timestamp;temperature;humidity
60723;DHT22;46574;52.818;6.516;2023-01-30T00:01:30;6.70;99.90
60723;DHT22;46574;52.818;6.516;2023-01-30T00:03:56;6.70;99.90
60723;DHT22;46574;52.818;6.516;2023-01-30T00:06:23;6.70;99.90
60723;DHT22;46574;52.818;6.516;2023-01-30T00:08:49;6.80;99.90
60723;DHT22;46574;52.818;6.516;2023-01-30T00:11:15;6.80;99.90
60723;DHT22;46574;52.818;6.516;2023-01-30T00:13:42;6.80;99.90
60723;DHT22;46574;52.818;6.516;2023-01-30T00:16:08;6.80;99.90
60723;DHT22;46574;52.818;6.516;2023-01-30T00:18:36;6.90;99.90
60723;DHT22;46574;52.818;6.516;2023-01-30T00:21:04;6.90;99.90
60723;DHT22;46574;52.818;6.516;2023-01-30T00:23:31;6.90;99.90
60723;DHT22;46574;52.818;6.516;2023-01-30T00:25:58;7.00;99.90
60723;DHT22;46574;52.818;6.516;2023-01-30T00:28:23;7.00;99.90
60723;DHT22;46574;52.818;6.516;2023-01-30T00:30:51;7.00;99.90
60723;DHT22;46574;52.818;6.516;2023-01-30T00:33:18;7.00;99.90
60723;DHT22;46574;52.818;6.516;2023-01-30T00:35:49;7.00;99.90
60723;DHT22;46574;52.818;6.516;2023-01-30T00:38:16;7.00;99.90
60723;DHT22;46574;52.818;6.516;2023-01-30T00:40:42;7.00;99.90
60723;DHT22;46574;52.818;6.516;2023-01-30T00:43:12;7.00;99.90
60723;DHT22;46574;52.818;6.516;2023-01-30T00:45:57;7.10;99.90
60723;DHT22;46574;52.818;6.516;2023-01-30T00:48:41;7.10;99.90
60723;DHT22;46574;52.818;6.516;2023-01-30T00:51:07;7.10;99.90
60723;DHT22;46574;52.818;6.516;2023-01-30T00:53:33;7.10;99.90
60723;DHT22;46574;52.818;6.516;2023-01-30T00:55:59;7.10;99.90
60723;DHT22;46574;52.818;6.516;2023-01-30T00:58:25;7.10;99.90
60723;DHT22;46574;52.818;6.516;2023-01-30T01:00:50;7.10;99.90
60723;DHT22;46574;52.818;6.516;2023-01-30T01:03:17;7.10;99.90
60723;DHT22;46574;52.818;6.516;2023-01-30T01:05:43;7.10;99.90
60723;DHT22;46574;52.818;6.516;2023-01-30T01:08:09;7.20;99.90
60723;DHT22;46574;52.818;6.516;2023-01-30T01:10:35;7.20;99.90
60723;DHT22;46574;52.818;6.516;2023-01-30T01:13:01;7.20;99.90
60723;DHT22;46574;52.818;6.516;2023-01-30T01:15:28;7.20;99.90
60723;DHT22;46574;52.818;6.516;2023-01-30T01:17:54;7.20;99.90
60723;DHT22;46574;52.818;6.516;2023-01-30T01:20:20;7.20;99.90
60723;DHT22;46574;52.818;6.516;2023-01-30T01:22:47;7.20;99.90
60723;DHT22;46574;52.818;6.516;2023-01-30T01:25:15;7.20;99.90
60723;DHT22;46574;52.818;6.516;2023-01-30T01:27:40;7.20;99.90
60723;DHT22;46574;52.818;6.516;2023-01-30T01:30:07;7.20;99.90
60723;DHT22;46574;52.818;6.516;2023-01-30T01:32:33;7.20;99.90
60723;DHT22;46574;52.818;6.516;2023-01-30T01:34:59;7.20;99.90
60723;DHT22;46574;52.818;6.516;2023-01-30T01:37:24;7.20;99.90
60723;DHT22;46574;52.818;6.516;2023-01-30T01:39:50;7.20;99.90
60723;DHT22;46574;52.818;6.516;2023-01-30T01:42:36;7.20;99.90
60723;DHT22;46574;52.818;6.516;2023-01-30T01:47:38;7.20;99.90
60723;DHT22;46574;52.818;6.516;2023-01-30T01:50:05;7.20;99.90
60723;DHT22;46574;52.818;6.516;2023-01-30T01:52:34;7.30;99.90
60723;DHT22;46574;52.818;6.516;2023-01-30T01:55:02;7.30;99.90
60723;DHT22;46574;52.818;6.516;2023-01-30T01:57:41;7.30;99.90
60723;DHT22;46574;52.818;6.516;2023-01-30T02:00:13;7.30;99.90
60723;DHT22;46574;52.818;6.516;2023-01-30T02:02:42;7.20;99.90
60723;DHT22;46574;52.818;6.516;2023-01-30T02:05:08;7.20;99.90
60723;DHT22;46574;52.818;6.516;2023-01-30T02:07:36;7.30;99.90
60723;DHT22;46574;52.818;6.516;2023-01-30T02:10:06;7.30;99.90
60723;DHT22;46574;52.818;6.516;2023-01-30T02:12:32;7.30;99.90
60723;DHT22;46574;52.818;6.516;2023-01-30T02:14:59;7.20;99.90
60723;DHT22;46574;52.818;6.516;2023-01-30T02:17:25;7.20;99.90
60723;DHT22;46574;52.818;6.516;2023-01-30T02:20:41;7.30;99.90
60723;DHT22;46574;52.818;6.516;2023-01-30T02:23:19;7.30;99.90
60723;DHT22;46574;52.818;6.516;2023-01-30T02:26:47;7.30;99.90
60723;DHT22;46574;52.818;6.516;2023-01-30T02:32:13;7.30;99.90
60723;DHT22;46574;52.818;6.516;2023-01-30T02:34:55;7.30;99.90
60723;DHT22;46574;52.818;6.516;2023-01-30T02:40:14;7.30;99.90
60723;DHT22;46574;52.818;6.516;2023-01-30T02:45:53;7.30;99.90
60723;DHT22;46574;52.818;6.516;2023-01-30T02:51:25;7.30;99.90
60723;DHT22;46574;52.818;6.516;2023-01-30T02:53:52;7.30;99.90
60723;DHT22;46574;52.818;6.516;2023-01-30T02:56:19;7.30;99.90
60723;DHT22;46574;52.818;6.516;2023-01-30T02:58:48;7.40;99.90
60723;DHT22;46574;52.818;6.516;2023-01-30T03:01:35;7.40;99.90
60723;DHT22;46574;52.818;6.516;2023-01-30T03:07:00;7.40;99.90
60723;DHT22;46574;52.818;6.516;2023-01-30T03:09:59;7.40;99.90
60723;DHT22;46574;52.818;6.516;2023-01-30T03:15:09;7.50;99.90
60723;DHT22;46574;52.818;6.516;2023-01-30T03:17:37;7.50;99.90
60723;DHT22;46574;52.818;6.516;2023-01-30T03:20:06;7.50;99.90
60723;DHT22;46574;52.818;6.516;2023-01-30T03:22:32;7.50;99.90
60723;DHT22;46574;52.818;6.516;2023-01-30T03:24:57;7.50;99.90
60723;DHT22;46574;52.818;6.516;2023-01-30T03:27:23;7.50;99.90
60723;DHT22;46574;52.818;6.516;2023-01-30T03:29:49;7.50;99.90
60723;DHT22;46574;52.818;6.516;2023-01-30T03:32:15;7.50;99.90
60723;DHT22;46574;52.818;6.516;2023-01-30T03:34:40;7.50;99.90
60723;DHT22;46574;52.818;6.516;2023-01-30T03:37:06;7.50;99.90
60723;DHT22;46574;52.818;6.516;2023-01-30T03:39:32;7.60;99.90
60723;DHT22;46574;52.818;6.516;2023-01-30T03:41:57;7.60;99.90
60723;DHT22;46574;52.818;6.516;2023-01-30T03:44:23;7.50;99.90
60723;DHT22;46574;52.818;6.516;2023-01-30T03:46:49;7.60;99.90
60723;DHT22;46574;52.818;6.516;2023-01-30T03:49:14;7.60;99.90
60723;DHT22;46574;52.818;6.516;2023-01-30T03:51:40;7.50;99.90
60723;DHT22;46574;52.818;6.516;2023-01-30T03:54:06;7.60;99.90
60723;DHT22;46574;52.818;6.516;2023-01-30T03:56:31;7.60;99.90
60723;DHT22;46574;52.818;6.516;2023-01-30T03:58:57;7.60;99.90
60723;DHT22;46574;52.818;6.516;2023-01-30T04:01:22;7.60;99.90
60723;DHT22;46574;52.818;6.516;2023-01-30T04:03:48;7.60;99.90
60723;DHT22;46574;52.818;6.516;2023-01-30T04:06:14;7.60;99.90
60723;DHT22;46574;52.818;6.516;2023-01-30T04:08:39;7.60;99.90
60723;DHT22;46574;52.818;6.516;2023-01-30T04:11:05;7.70;99.90
60723;DHT22;46574;52.818;6.516;2023-01-30T04:13:31;7.60;99.90
60723;DHT22;46574;52.818;6.516;2023-01-30T04:16:16;7.60;99.90
60723;DHT22;46574;52.818;6.516;2023-01-30T04:18:42;7.70;99.90
60723;DHT22;46574;52.818;6.516;2023-01-30T04:21:08;7.60;99.90
60723;DHT22;46574;52.818;6.516;2023-01-30T04:23:33;7.60;99.90
60723;DHT22;46574;52.818;6.516;2023-01-30T04:25:59;7.60;99.90
60723;DHT22;46574;52.818;6.516;2023-01-30T04:28:25;7.60;99.90
60723;DHT22;46574;52.818;6.516;2023-01-30T04:30:53;7.60;99.90
60723;DHT22;46574;52.818;6.516;2023-01-30T04:33:19;7.60;99.90
60723;DHT22;46574;52.818;6.516;2023-01-30T04:35:58;7.50;99.90
60723;DHT22;46574;52.818;6.516;2023-01-30T04:38:25;7.50;99.90
60723;DHT22;46574;52.818;6.516;2023-01-30T04:40:53;7.50;99.90
60723;DHT22;46574;52.818;6.516;2023-01-30T04:43:20;7.40;99.90
60723;DHT22;46574;52.818;6.516;2023-01-30T04:45:47;7.40;99.90
60723;DHT22;46574;52.818;6.516;2023-01-30T04:48:15;7.40;99.90
60723;DHT22;46574;52.818;6.516;2023-01-30T04:50:42;7.40;99.90
60723;DHT22;46574;52.818;6.516;2023-01-30T04:53:09;7.30;99.90
60723;DHT22;46574;52.818;6.516;2023-01-30T04:55:35;7.30;99.90
60723;DHT22;46574;52.818;6.516;2023-01-30T04:58:01;7.30;99.90
60723;DHT22;46574;52.818;6.516;2023-01-30T05:00:27;7.30;99.90
60723;DHT22;46574;52.818;6.516;2023-01-30T05:02:53;7.30;99.90
60723;DHT22;46574;52.818;6.516;2023-01-30T05:05:21;7.40;99.90
60723;DHT22;46574;52.818;6.516;2023-01-30T05:07:47;7.30;99.90
60723;DHT22;46574;52.818;6.516;2023-01-30T05:10:13;7.30;99.90
60723;DHT22;46574;52.818;6.516;2023-01-30T05:12:38;7.30;99.90
60723;DHT22;46574;52.818;6.516;2023-01-30T05:15:04;7.30;99.90
60723;DHT22;46574;52.818;6.516;2023-01-30T05:17:31;7.20;99.90
60723;DHT22;46574;52.818;6.516;2023-01-30T05:19:57;7.20;99.90
60723;DHT22;46574;52.818;6.516;2023-01-30T05:22:23;7.10;99.90
60723;DHT22;46574;52.818;6.516;2023-01-30T05:24:48;7.10;99.90
60723;DHT22;46574;52.818;6.516;2023-01-30T05:27:14;7.10;99.90
60723;DHT22;46574;52.818;6.516;2023-01-30T05:29:40;7.00;99.90
60723;DHT22;46574;52.818;6.516;2023-01-30T05:32:06;7.00;99.90
60723;DHT22;46574;52.818;6.516;2023-01-30T05:34:31;6.90;99.90
60723;DHT22;46574;52.818;6.516;2023-01-30T05:36:57;6.90;99.90
60723;DHT22;46574;52.818;6.516;2023-01-30T05:39:23;6.80;99.90
60723;DHT22;46574;52.818;6.516;2023-01-30T05:41:48;6.80;99.90
60723;DHT22;46574;52.818;6.516;2023-01-30T05:44:14;6.70;99.90
60723;DHT22;46574;52.818;6.516;2023-01-30T05:46:40;6.70;99.90
60723;DHT22;46574;52.818;6.516;2023-01-30T05:49:06;6.70;99.90
60723;DHT22;46574;52.818;6.516;2023-01-30T05:51:32;6.60;99.90
60723;DHT22;46574;52.818;6.516;2023-01-30T05:53:57;6.60;99.90
60723;DHT22;46574;52.818;6.516;2023-01-30T05:56:23;6.60;99.90
60723;DHT22;46574;52.818;6.516;2023-01-30T05:58:53;6.60;99.90
60723;DHT22;46574;52.818;6.516;2023-01-30T06:01:19;6.50;99.90
60723;DHT22;46574;52.818;6.516;2023-01-30T06:03:45;6.60;99.90
60723;DHT22;46574;52.818;6.516;2023-01-30T06:06:11;6.50;99.90
60723;DHT22;46574;52.818;6.516;2023-01-30T06:08:37;6.50;99.90
60723;DHT22;46574;52.818;6.516;2023-01-30T06:11:05;6.50;99.90
60723;DHT22;46574;52.818;6.516;2023-01-30T06:13:32;6.40;99.90
60723;DHT22;46574;52.818;6.516;2023-01-30T06:15:58;6.40;99.90
60723;DHT22;46574;52.818;6.516;2023-01-30T06:18:24;6.40;99.90
60723;DHT22;46574;52.818;6.516;2023-01-30T06:20:51;6.30;99.90
60723;DHT22;46574;52.818;6.516;2023-01-30T06:23:17;6.30;99.90
60723;DHT22;46574;52.818;6.516;2023-01-30T06:25:47;6.30;99.90
60723;DHT22;46574;52.818;6.516;2023-01-30T06:28:13;6.30;99.90
60723;DHT22;46574;52.818;6.516;2023-01-30T06:30:39;6.30;99.90
60723;DHT22;46574;52.818;6.516;2023-01-30T06:33:05;6.30;99.90
60723;DHT22;46574;52.818;6.516;2023-01-30T06:35:31;6.30;99.90
60723;DHT22;46574;52.818;6.516;2023-01-30T06:37:56;6.40;99.90
60723;DHT22;46574;52.818;6.516;2023-01-30T06:40:22;6.40;99.90
60723;DHT22;46574;52.818;6.516;2023-01-30T06:42:48;6.40;99.90
60723;DHT22;46574;52.818;6.516;2023-01-30T06:45:16;6.50;99.90
60723;DHT22;46574;52.818;6.516;2023-01-30T06:47:46;6.50;99.90
60723;DHT22;46574;52.818;6.516;2023-01-30T06:50:13;6.50;99.90
60723;DHT22;46574;52.818;6.516;2023-01-30T06:52:46;6.50;99.90
60723;DHT22;46574;52.818;6.516;2023-01-30T06:55:14;6.50;99.90
60723;DHT22;46574;52.818;6.516;2023-01-30T06:57:41;6.50;99.90
60723;DHT22;46574;52.818;6.516;2023-01-30T07:00:09;6.40;99.90
60723;DHT22;46574;52.818;6.516;2023-01-30T07:02:36;6.40;99.90
60723;DHT22;46574;52.818;6.516;2023-01-30T07:05:03;6.40;99.90
60723;DHT22;46574;52.818;6.516;2023-01-30T07:07:30;6.40;99.90
60723;DHT22;46574;52.818;6.516;2023-01-30T07:09:56;6.40;99.90
60723;DHT22;46574;52.818;6.516;2023-01-30T07:12:23;6.40;99.90
60723;DHT22;46574;52.818;6.516;2023-01-30T07:14:49;6.40;99.90
60723;DHT22;46574;52.818;6.516;2023-01-30T07:17:15;6.50;99.90
60723;DHT22;46574;52.818;6.516;2023-01-30T07:19:42;6.50;99.90
60723;DHT22;46574;52.818;6.516;2023-01-30T07:22:08;6.50;99.90
60723;DHT22;46574;52.818;6.516;2023-01-30T07:24:33;6.60;99.90
60723;DHT22;46574;52.818;6.516;2023-01-30T07:26:59;6.50;99.90
60723;DHT22;46574;52.818;6.516;2023-01-30T07:29:24;6.60;99.90
60723;DHT22;46574;52.818;6.516;2023-01-30T07:31:50;6.60;99.90
60723;DHT22;46574;52.818;6.516;2023-01-30T07:34:16;6.50;99.90
60723;DHT22;46574;52.818;6.516;2023-01-30T07:36:42;6.50;99.90
60723;DHT22;46574;52.818;6.516;2023-01-30T07:39:07;6.50;99.90
60723;DHT22;46574;52.818;6.516;2023-01-30T07:41:34;6.50;99.90
60723;DHT22;46574;52.818;6.516;2023-01-30T07:44:00;6.50;99.90
60723;DHT22;46574;52.818;6.516;2023-01-30T07:46:26;6.50;99.90
60723;DHT22;46574;52.818;6.516;2023-01-30T07:49:02;6.50;99.90
60723;DHT22;46574;52.818;6.516;2023-01-30T07:51:28;6.50;99.90
60723;DHT22;46574;52.818;6.516;2023-01-30T07:53:53;6.60;99.90
60723;DHT22;46574;52.818;6.516;2023-01-30T07:56:19;6.60;99.90
60723;DHT22;46574;52.818;6.516;2023-01-30T07:58:48;6.70;99.90
60723;DHT22;46574;52.818;6.516;2023-01-30T08:01:14;6.70;99.90
60723;DHT22;46574;52.818;6.516;2023-01-30T08:03:39;6.70;99.90
60723;DHT22;46574;52.818;6.516;2023-01-30T08:06:06;6.80;99.90
60723;DHT22;46574;52.818;6.516;2023-01-30T08:08:31;6.70;99.90
60723;DHT22;46574;52.818;6.516;2023-01-30T08:10:57;6.80;99.90
60723;DHT22;46574;52.818;6.516;2023-01-30T08:13:23;6.90;99.90
60723;DHT22;46574;52.818;6.516;2023-01-30T08:15:48;6.80;99.90
60723;DHT22;46574;52.818;6.516;2023-01-30T08:18:14;6.80;99.90
60723;DHT22;46574;52.818;6.516;2023-01-30T08:20:40;6.80;99.90
60723;DHT22;46574;52.818;6.516;2023-01-30T08:23:07;6.80;99.90
60723;DHT22;46574;52.818;6.516;2023-01-30T08:25:33;6.90;99.90
60723;DHT22;46574;52.818;6.516;2023-01-30T08:28:00;6.90;99.90
60723;DHT22;46574;52.818;6.516;2023-01-30T08:30:26;6.90;99.90
60723;DHT22;46574;52.818;6.516;2023-01-30T08:32:53;7.00;99.90
60723;DHT22;46574;52.818;6.516;2023-01-30T08:35:19;7.00;99.90
60723;DHT22;46574;52.818;6.516;2023-01-30T08:37:45;7.00;99.90
60723;DHT22;46574;52.818;6.516;2023-01-30T08:40:11;7.00;99.90
60723;DHT22;46574;52.818;6.516;2023-01-30T08:42:37;7.00;99.90
60723;DHT22;46574;52.818;6.516;2023-01-30T08:45:03;7.00;99.90
60723;DHT22;46574;52.818;6.516;2023-01-30T08:47:29;7.00;99.90
60723;DHT22;46574;52.818;6.516;2023-01-30T08:49:55;7.00;99.90
60723;DHT22;46574;52.818;6.516;2023-01-30T08:52:20;7.00;99.90
60723;DHT22;46574;52.818;6.516;2023-01-30T08:54:46;7.10;99.90
60723;DHT22;46574;52.818;6.516;2023-01-30T08:57:13;7.00;99.90
60723;DHT22;46574;52.818;6.516;2023-01-30T08:59:39;7.00;99.90
60723;DHT22;46574;52.818;6.516;2023-01-30T09:02:05;7.10;99.90
60723;DHT22;46574;52.818;6.516;2023-01-30T09:04:33;7.00;99.90
60723;DHT22;46574;52.818;6.516;2023-01-30T09:06:58;7.10;99.90
60723;DHT22;46574;52.818;6.516;2023-01-30T09:09:24;7.10;99.90
60723;DHT22;46574;52.818;6.516;2023-01-30T09:11:50;7.00;99.90
60723;DHT22;46574;52.818;6.516;2023-01-30T09:14:16;7.00;99.90
60723;DHT22;46574;52.818;6.516;2023-01-30T09:16:45;7.10;99.90
60723;DHT22;46574;52.818;6.516;2023-01-30T09:19:11;7.10;99.90
60723;DHT22;46574;52.818;6.516;2023-01-30T09:21:36;7.20;99.90
60723;DHT22;46574;52.818;6.516;2023-01-30T09:24:04;7.30;99.90
60723;DHT22;46574;52.818;6.516;2023-01-30T09:26:30;7.30;99.90
60723;DHT22;46574;52.818;6.516;2023-01-30T09:28:55;7.30;99.90
60723;DHT22;46574;52.818;6.516;2023-01-30T09:31:21;7.30;99.90
60723;DHT22;46574;52.818;6.516;2023-01-30T09:33:47;7.40;99.90
60723;DHT22;46574;52.818;6.516;2023-01-30T09:36:12;7.40;99.90
60723;DHT22;46574;52.818;6.516;2023-01-30T09:38:38;7.30;99.90
60723;DHT22;46574;52.818;6.516;2023-01-30T09:47:11;7.30;99.90
60723;DHT22;46574;52.818;6.516;2023-01-30T09:52:33;7.50;99.90
60723;DHT22;46574;52.818;6.516;2023-01-30T09:55:14;7.60;99.90
60723;DHT22;46574;52.818;6.516;2023-01-30T09:57:40;7.60;99.90
60723;DHT22;46574;52.818;6.516;2023-01-30T10:00:33;7.60;99.90
60723;DHT22;46574;52.818;6.516;2023-01-30T10:03:12;7.60;99.90
60723;DHT22;46574;52.818;6.516;2023-01-30T10:05:52;7.60;99.90
60723;DHT22;46574;52.818;6.516;2023-01-30T10:11:34;7.70;99.90
60723;DHT22;46574;52.818;6.516;2023-01-30T10:24:44;7.90;99.90
60723;DHT22;46574;52.818;6.516;2023-01-30T10:27:15;8.00;99.90
60723;DHT22;46574;52.818;6.516;2023-01-30T10:29:45;8.00;99.90
60723;DHT22;46574;52.818;6.516;2023-01-30T10:32:14;8.00;99.90
60723;DHT22;46574;52.818;6.516;2023-01-30T10:34:47;8.10;99.90
60723;DHT22;46574;52.818;6.516;2023-01-30T10:40:15;8.10;99.90
60723;DHT22;46574;52.818;6.516;2023-01-30T10:42:55;8.10;99.90
60723;DHT22;46574;52.818;6.516;2023-01-30T10:45:37;8.10;99.90
60723;DHT22;46574;52.818;6.516;2023-01-30T10:51:04;8.10;99.90
60723;DHT22;46574;52.818;6.516;2023-01-30T10:53:39;8.10;99.90
60723;DHT22;46574;52.818;6.516;2023-01-30T11:02:16;8.20;99.90
60723;DHT22;46574;52.818;6.516;2023-01-30T11:04:58;8.20;99.90
60723;DHT22;46574;52.818;6.516;2023-01-30T11:07:24;8.20;99.90
60723;DHT22;46574;52.818;6.516;2023-01-30T11:09:50;8.20;99.90
60723;DHT22;46574;52.818;6.516;2023-01-30T11:12:16;8.30;99.90
60723;DHT22;46574;52.818;6.516;2023-01-30T11:14:53;8.40;99.90
60723;DHT22;46574;52.818;6.516;2023-01-30T11:17:23;8.40;99.90
60723;DHT22;46574;52.818;6.516;2023-01-30T11:19:55;8.40;99.90
60723;DHT22;46574;52.818;6.516;2023-01-30T11:22:24;8.30;99.90
60723;DHT22;46574;52.818;6.516;2023-01-30T11:25:08;8.10;99.90
60723;DHT22;46574;52.818;6.516;2023-01-30T11:27:35;7.90;99.90
60723;DHT22;46574;52.818;6.516;2023-01-30T11:30:04;7.90;99.90
60723;DHT22;46574;52.818;6.516;2023-01-30T11:32:30;7.90;99.90
60723;DHT22;46574;52.818;6.516;2023-01-30T11:37:38;7.90;99.90
60723;DHT22;46574;52.818;6.516;2023-01-30T11:40:25;7.80;99.90
60723;DHT22;46574;52.818;6.516;2023-01-30T11:43:00;7.80;99.90
60723;DHT22;46574;52.818;6.516;2023-01-30T11:45:26;7.80;99.90
60723;DHT22;46574;52.818;6.516;2023-01-30T11:48:00;7.90;99.90
60723;DHT22;46574;52.818;6.516;2023-01-30T11:50:49;8.20;99.90
60723;DHT22;46574;52.818;6.516;2023-01-30T11:56:11;8.40;99.90
60723;DHT22;46574;52.818;6.516;2023-01-30T11:58:39;8.00;99.90
60723;DHT22;46574;52.818;6.516;2023-01-30T12:01:08;7.60;99.90
60723;DHT22;46574;52.818;6.516;2023-01-30T12:03:43;7.40;99.90
60723;DHT22;46574;52.818;6.516;2023-01-30T12:06:10;7.20;99.90
60723;DHT22;46574;52.818;6.516;2023-01-30T12:08:37;7.00;99.90
60723;DHT22;46574;52.818;6.516;2023-01-30T12:11:28;6.90;99.90
60723;DHT22;46574;52.818;6.516;2023-01-30T12:14:44;6.90;99.90
60723;DHT22;46574;52.818;6.516;2023-01-30T12:16:58;7.00;99.90
60723;DHT22;46574;52.818;6.516;2023-01-30T12:19:51;6.80;99.90
60723;DHT22;46574;52.818;6.516;2023-01-30T12:22:31;6.70;99.90
60723;DHT22;46574;52.818;6.516;2023-01-30T12:25:18;6.80;99.90
60723;DHT22;46574;52.818;6.516;2023-01-30T12:27:55;7.00;99.90
60723;DHT22;46574;52.818;6.516;2023-01-30T12:33:03;7.40;99.90
60723;DHT22;46574;52.818;6.516;2023-01-30T12:38:39;7.70;99.90
60723;DHT22;46574;52.818;6.516;2023-01-30T12:44:18;7.80;99.90
60723;DHT22;46574;52.818;6.516;2023-01-30T12:52:44;8.00;99.90
60723;DHT22;46574;52.818;6.516;2023-01-30T12:55:48;8.00;99.90
60723;DHT22;46574;52.818;6.516;2023-01-30T12:58:41;8.00;99.90
60723;DHT22;46574;52.818;6.516;2023-01-30T13:04:47;8.00;99.90
60723;DHT22;46574;52.818;6.516;2023-01-30T13:07:27;8.00;99.90
60723;DHT22;46574;52.818;6.516;2023-01-30T13:15:51;8.10;99.90
60723;DHT22;46574;52.818;6.516;2023-01-30T13:18:25;8.20;99.90
60723;DHT22;46574;52.818;6.516;2023-01-30T13:21:10;8.30;99.90
60723;DHT22;46574;52.818;6.516;2023-01-30T13:26:35;8.30;99.90
60723;DHT22;46574;52.818;6.516;2023-01-30T13:29:30;8.20;99.90
60723;DHT22;46574;52.818;6.516;2023-01-30T13:31:58;8.10;99.90
60723;DHT22;46574;52.818;6.516;2023-01-30T13:34:32;8.10;99.90
60723;DHT22;46574;52.818;6.516;2023-01-30T13:37:06;8.10;99.90
60723;DHT22;46574;52.818;6.516;2023-01-30T13:39:37;8.10;99.90
60723;DHT22;46574;52.818;6.516;2023-01-30T13:42:07;8.20;99.90
60723;DHT22;46574;52.818;6.516;2023-01-30T13:44:38;8.20;99.90
60723;DHT22;46574;52.818;6.516;2023-01-30T13:47:31;8.20;99.90
60723;DHT22;46574;52.818;6.516;2023-01-30T13:52:50;8.20;99.90
60723;DHT22;46574;52.818;6.516;2023-01-30T13:55:37;8.20;99.90
60723;DHT22;46574;52.818;6.516;2023-01-30T13:58:10;8.20;99.90
60723;DHT22;46574;52.818;6.516;2023-01-30T14:00:38;8.20;99.90
60723;DHT22;46574;52.818;6.516;2023-01-30T14:10:48;8.20;99.90
60723;DHT22;46574;52.818;6.516;2023-01-30T14:13:14;8.20;99.90
60723;DHT22;46574;52.818;6.516;2023-01-30T14:15:54;8.20;99.90
60723;DHT22;46574;52.818;6.516;2023-01-30T14:18:27;8.20;99.90
60723;DHT22;46574;52.818;6.516;2023-01-30T14:24:00;8.20;99.90
60723;DHT22;46574;52.818;6.516;2023-01-30T14:27:03;8.20;99.90
60723;DHT22;46574;52.818;6.516;2023-01-30T14:37:44;8.30;99.90
60723;DHT22;46574;52.818;6.516;2023-01-30T14:45:50;8.30;99.90
60723;DHT22;46574;52.818;6.516;2023-01-30T14:54:17;8.20;99.90
60723;DHT22;46574;52.818;6.516;2023-01-30T14:57:05;8.20;99.90
60723;DHT22;46574;52.818;6.516;2023-01-30T14:59:53;8.20;99.90
60723;DHT22;46574;52.818;6.516;2023-01-30T15:02:27;8.10;99.90
60723;DHT22;46574;52.818;6.516;2023-01-30T15:21:34;7.90;99.90
60723;DHT22;46574;52.818;6.516;2023-01-30T15:26:55;7.90;99.90
60723;DHT22;46574;52.818;6.516;2023-01-30T15:32:14;7.90;99.90
60723;DHT22;46574;52.818;6.516;2023-01-30T15:34:52;7.90;99.90
60723;DHT22;46574;52.818;6.516;2023-01-30T15:47:57;7.70;99.90
60723;DHT22;46574;52.818;6.516;2023-01-30T15:50:25;7.70;99.90
60723;DHT22;46574;52.818;6.516;2023-01-30T15:52:51;7.60;99.90
60723;DHT22;46574;52.818;6.516;2023-01-30T15:55:30;7.60;99.90
60723;DHT22;46574;52.818;6.516;2023-01-30T15:58:07;7.50;99.90
60723;DHT22;46574;52.818;6.516;2023-01-30T16:00:38;7.50;99.90
60723;DHT22;46574;52.818;6.516;2023-01-30T16:03:10;7.50;99.90
60723;DHT22;46574;52.818;6.516;2023-01-30T16:05:46;7.50;99.90
60723;DHT22;46574;52.818;6.516;2023-01-30T16:08:22;7.50;99.90
60723;DHT22;46574;52.818;6.516;2023-01-30T16:10:48;7.50;99.90
60723;DHT22;46574;52.818;6.516;2023-01-30T16:13:16;7.50;99.90
60723;DHT22;46574;52.818;6.516;2023-01-30T16:15:50;7.50;99.90
60723;DHT22;46574;52.818;6.516;2023-01-30T16:21:08;7.50;99.90
60723;DHT22;46574;52.818;6.516;2023-01-30T16:24:35;7.40;99.90
60723;DHT22;46574;52.818;6.516;2023-01-30T16:26:44;7.40;99.90
60723;DHT22;46574;52.818;6.516;2023-01-30T16:29:17;7.40;99.90
60723;DHT22;46574;52.818;6.516;2023-01-30T16:31:46;7.40;99.90
60723;DHT22;46574;52.818;6.516;2023-01-30T16:34:29;7.40;99.90
60723;DHT22;46574;52.818;6.516;2023-01-30T16:36:57;7.40;99.90
60723;DHT22;46574;52.818;6.516;2023-01-30T16:39:34;7.30;99.90
60723;DHT22;46574;52.818;6.516;2023-01-30T16:42:02;7.30;99.90
60723;DHT22;46574;52.818;6.516;2023-01-30T16:44:30;7.20;99.90
60723;DHT22;46574;52.818;6.516;2023-01-30T16:47:00;7.10;99.90
60723;DHT22;46574;52.818;6.516;2023-01-30T16:52:24;7.00;99.90
60723;DHT22;46574;52.818;6.516;2023-01-30T16:54:55;7.00;99.90
60723;DHT22;46574;52.818;6.516;2023-01-30T16:57:27;6.90;99.90
60723;DHT22;46574;52.818;6.516;2023-01-30T16:59:56;6.80;99.90
60723;DHT22;46574;52.818;6.516;2023-01-30T17:02:34;6.80;99.90
60723;DHT22;46574;52.818;6.516;2023-01-30T17:05:21;6.80;99.90
60723;DHT22;46574;52.818;6.516;2023-01-30T17:07:48;6.70;99.90
60723;DHT22;46574;52.818;6.516;2023-01-30T17:12:53;6.60;99.90
60723;DHT22;46574;52.818;6.516;2023-01-30T17:17:45;6.60;99.90
60723;DHT22;46574;52.818;6.516;2023-01-30T17:20:12;6.50;99.90
60723;DHT22;46574;52.818;6.516;2023-01-30T17:22:43;6.50;99.90
60723;DHT22;46574;52.818;6.516;2023-01-30T17:25:35;6.40;99.90
60723;DHT22;46574;52.818;6.516;2023-01-30T17:28:05;6.40;99.90
60723;DHT22;46574;52.818;6.516;2023-01-30T17:30:31;6.40;99.90
60723;DHT22;46574;52.818;6.516;2023-01-30T17:32:57;6.30;99.90
60723;DHT22;46574;52.818;6.516;2023-01-30T17:35:22;6.30;99.90
60723;DHT22;46574;52.818;6.516;2023-01-30T17:37:48;6.30;99.90
60723;DHT22;46574;52.818;6.516;2023-01-30T17:40:26;6.20;99.90
60723;DHT22;46574;52.818;6.516;2023-01-30T17:42:53;6.20;99.90
60723;DHT22;46574;52.818;6.516;2023-01-30T17:45:18;6.30;99.90
60723;DHT22;46574;52.818;6.516;2023-01-30T17:47:44;6.30;99.90
60723;DHT22;46574;52.818;6.516;2023-01-30T17:50:11;6.20;99.90
60723;DHT22;46574;52.818;6.516;2023-01-30T17:52:38;6.20;99.90
60723;DHT22;46574;52.818;6.516;2023-01-30T17:55:05;6.20;99.90
60723;DHT22;46574;52.818;6.516;2023-01-30T17:57:31;6.20;99.90
60723;DHT22;46574;52.818;6.516;2023-01-30T17:59:57;6.10;99.90
60723;DHT22;46574;52.818;6.516;2023-01-30T18:02:22;6.20;99.90
60723;DHT22;46574;52.818;6.516;2023-01-30T18:04:48;6.10;99.90
60723;DHT22;46574;52.818;6.516;2023-01-30T18:07:14;6.10;99.90
60723;DHT22;46574;52.818;6.516;2023-01-30T18:09:40;6.10;99.90
60723;DHT22;46574;52.818;6.516;2023-01-30T18:12:06;6.10;99.90
60723;DHT22;46574;52.818;6.516;2023-01-30T18:14:32;6.10;99.90
60723;DHT22;46574;52.818;6.516;2023-01-30T18:16:58;6.10;99.90
60723;DHT22;46574;52.818;6.516;2023-01-30T18:19:26;6.10;99.90
60723;DHT22;46574;52.818;6.516;2023-01-30T18:21:52;6.00;99.90
60723;DHT22;46574;52.818;6.516;2023-01-30T18:24:18;6.00;99.90
60723;DHT22;46574;52.818;6.516;2023-01-30T18:26:44;6.00;99.90
60723;DHT22;46574;52.818;6.516;2023-01-30T18:29:11;6.00;99.90
60723;DHT22;46574;52.818;6.516;2023-01-30T18:31:38;6.10;99.90
60723;DHT22;46574;52.818;6.516;2023-01-30T18:34:04;6.10;99.90
60723;DHT22;46574;52.818;6.516;2023-01-30T18:36:33;6.00;99.90
60723;DHT22;46574;52.818;6.516;2023-01-30T18:38:59;6.00;99.90
60723;DHT22;46574;52.818;6.516;2023-01-30T18:41:25;6.00;99.90
60723;DHT22;46574;52.818;6.516;2023-01-30T18:43:58;6.00;99.90
60723;DHT22;46574;52.818;6.516;2023-01-30T18:46:24;6.00;99.90